sensor_id;sensor_type;location;lat;lon;timestamp;pressure;altitude;pressure_sealevel;temperature;humidity
46303;BME280;32029;51.358;5.628;2023-04-27T00:02:10;101787.72;;;7.21;70.18
46303;BME280;32029;51.358;5.628;2023-04-27T00:04:37;101802.97;;;7.24;70.93
46303;BME280;32029;51.358;5.628;2023-04-27T00:07:03;101802.13;;;7.23;70.87
46303;BME280;32029;51.358;5.628;2023-04-27T00:09:30;101786.59;;;7.14;71.22
46303;BME280;32029;51.358;5.628;2023-04-27T00:11:57;101805.00;;;7.22;71.06
46303;BME280;32029;51.358;5.628;2023-04-27T00:14:23;101785.44;;;7.07;71.15
46303;BME280;32029;51.358;5.628;2023-04-27T00:16:54;101779.94;;;6.97;71.57
46303;BME280;32029;51.358;5.628;2023-04-27T00:19:21;101781.13;;;6.95;71.53
46303;BME280;32029;51.358;5.628;2023-04-27T00:21:48;101794.75;;;6.95;71.82
46303;BME280;32029;51.358;5.628;2023-04-27T00:24:14;101799.78;;;6.99;71.65
46303;BME280;32029;51.358;5.628;2023-04-27T00:26:41;101802.06;;;6.94;72.22
46303;BME280;32029;51.358;5.628;2023-04-27T00:29:08;101782.78;;;6.76;72.30
46303;BME280;32029;51.358;5.628;2023-04-27T00:31:34;101807.34;;;6.86;72.17
46303;BME280;32029;51.358;5.628;2023-04-27T00:34:01;101810.38;;;6.83;72.56
46303;BME280;32029;51.358;5.628;2023-04-27T00:36:28;101811.66;;;6.79;72.99
46303;BME280;32029;51.358;5.628;2023-04-27T00:38:54;101797.25;;;6.67;73.07
46303;BME280;32029;51.358;5.628;2023-04-27T00:41:21;101808.63;;;6.72;72.76
46303;BME280;32029;51.358;5.628;2023-04-27T00:43:48;101790.91;;;6.57;72.83
46303;BME280;32029;51.358;5.628;2023-04-27T00:46:15;101792.63;;;6.58;72.78
46303;BME280;32029;51.358;5.628;2023-04-27T00:48:43;101771.19;;;6.44;73.02
46303;BME280;32029;51.358;5.628;2023-04-27T00:51:10;101801.66;;;6.58;73.47
46303;BME280;32029;51.358;5.628;2023-04-27T00:53:37;101807.41;;;6.55;73.65
46303;BME280;32029;51.358;5.628;2023-04-27T00:56:06;101801.03;;;6.45;73.43
46303;BME280;32029;51.358;5.628;2023-04-27T00:58:32;101790.66;;;6.39;73.63
46303;BME280;32029;51.358;5.628;2023-04-27T01:00:59;101811.81;;;6.47;74.02
46303;BME280;32029;51.358;5.628;2023-04-27T01:03:27;101787.66;;;6.32;73.95
46303;BME280;32029;51.358;5.628;2023-04-27T01:05:53;101782.72;;;6.26;74.10
46303;BME280;32029;51.358;5.628;2023-04-27T01:08:22;101806.06;;;6.40;74.24
46303;BME280;32029;51.358;5.628;2023-04-27T01:10:48;101798.81;;;6.29;74.52
46303;BME280;32029;51.358;5.628;2023-04-27T01:13:15;101766.72;;;6.12;74.81
46303;BME280;32029;51.358;5.628;2023-04-27T01:15:42;101809.31;;;6.34;74.85
46303;BME280;32029;51.358;5.628;2023-04-27T01:18:08;101764.69;;;6.04;74.77
46303;BME280;32029;51.358;5.628;2023-04-27T01:20:35;101801.22;;;6.23;74.72
46303;BME280;32029;51.358;5.628;2023-04-27T01:23:02;101804.94;;;6.22;74.81
46303;BME280;32029;51.358;5.628;2023-04-27T01:25:29;101791.25;;;6.12;75.29
46303;BME280;32029;51.358;5.628;2023-04-27T01:27:55;101727.16;;;5.66;74.91
46303;BME280;32029;51.358;5.628;2023-04-27T01:30:22;101801.19;;;6.13;75.00
46303;BME280;32029;51.358;5.628;2023-04-27T01:32:49;101813.66;;;6.16;75.25
46303;BME280;32029;51.358;5.628;2023-04-27T01:35:17;101780.59;;;5.88;75.29
46303;BME280;32029;51.358;5.628;2023-04-27T01:37:43;101816.94;;;6.09;75.54
46303;BME280;32029;51.358;5.628;2023-04-27T01:40:10;101812.59;;;6.07;75.50
46303;BME280;32029;51.358;5.628;2023-04-27T01:42:37;101804.56;;;6.05;76.29
46303;BME280;32029;51.358;5.628;2023-04-27T01:45:04;101759.78;;;5.77;76.16
46303;BME280;32029;51.358;5.628;2023-04-27T01:47:31;101784.94;;;5.90;75.74
46303;BME280;32029;51.358;5.628;2023-04-27T01:49:58;101753.84;;;5.72;75.76
46303;BME280;32029;51.358;5.628;2023-04-27T01:52:24;101780.00;;;5.84;76.22
46303;BME280;32029;51.358;5.628;2023-04-27T01:54:51;101801.78;;;5.96;75.68
46303;BME280;32029;51.358;5.628;2023-04-27T01:57:18;101785.47;;;5.84;75.90
46303;BME280;32029;51.358;5.628;2023-04-27T01:59:45;101763.03;;;5.71;75.73
46303;BME280;32029;51.358;5.628;2023-04-27T02:02:11;101781.94;;;5.73;76.25
46303;BME280;32029;51.358;5.628;2023-04-27T02:04:38;101784.81;;;5.71;75.96
46303;BME280;32029;51.358;5.628;2023-04-27T02:07:05;101769.28;;;5.62;76.18
46303;BME280;32029;51.358;5.628;2023-04-27T02:09:32;101775.44;;;5.64;75.96
46303;BME280;32029;51.358;5.628;2023-04-27T02:11:58;101794.44;;;5.75;76.10
46303;BME280;32029;51.358;5.628;2023-04-27T02:14:25;101801.16;;;5.71;75.95
46303;BME280;32029;51.358;5.628;2023-04-27T02:16:52;101799.69;;;5.67;75.99
46303;BME280;32029;51.358;5.628;2023-04-27T02:19:18;101775.75;;;5.50;76.13
46303;BME280;32029;51.358;5.628;2023-04-27T02:21:45;101783.19;;;5.48;76.14
46303;BME280;32029;51.358;5.628;2023-04-27T02:24:12;101799.59;;;5.57;76.34
46303;BME280;32029;51.358;5.628;2023-04-27T02:26:38;101790.38;;;5.49;76.20
46303;BME280;32029;51.358;5.628;2023-04-27T02:29:05;101794.69;;;5.51;76.41
46303;BME280;32029;51.358;5.628;2023-04-27T02:31:32;101773.09;;;5.38;76.65
46303;BME280;32029;51.358;5.628;2023-04-27T02:33:58;101769.78;;;5.35;76.19
46303;BME280;32029;51.358;5.628;2023-04-27T02:36:25;101683.53;;;4.82;76.24
46303;BME280;32029;51.358;5.628;2023-04-27T02:38:53;101753.34;;;5.25;76.43
46303;BME280;32029;51.358;5.628;2023-04-27T02:41:20;101742.50;;;5.14;76.60
46303;BME280;32029;51.358;5.628;2023-04-27T02:43:46;101771.28;;;5.28;76.71
46303;BME280;32029;51.358;5.628;2023-04-27T02:46:13;101771.41;;;5.26;76.66
46303;BME280;32029;51.358;5.628;2023-04-27T02:48:40;101779.31;;;5.29;77.08
46303;BME280;32029;51.358;5.628;2023-04-27T02:51:06;101757.38;;;5.10;76.91
46303;BME280;32029;51.358;5.628;2023-04-27T02:53:33;101761.94;;;5.09;76.83
46303;BME280;32029;51.358;5.628;2023-04-27T02:56:00;101785.41;;;5.22;76.84
46303;BME280;32029;51.358;5.628;2023-04-27T02:58:26;101787.50;;;5.18;76.99
46303;BME280;32029;51.358;5.628;2023-04-27T03:00:54;101769.03;;;5.01;76.91
46303;BME280;32029;51.358;5.628;2023-04-27T03:03:21;101786.28;;;5.11;77.03
46303;BME280;32029;51.358;5.628;2023-04-27T03:05:48;101789.16;;;5.09;77.03
46303;BME280;32029;51.358;5.628;2023-04-27T03:08:15;101757.44;;;4.87;77.73
46303;BME280;32029;51.358;5.628;2023-04-27T03:10:43;101766.09;;;4.93;77.18
46303;BME280;32029;51.358;5.628;2023-04-27T03:13:10;101773.25;;;4.94;77.27
46303;BME280;32029;51.358;5.628;2023-04-27T03:15:36;101789.78;;;5.02;77.35
46303;BME280;32029;51.358;5.628;2023-04-27T03:18:03;101762.66;;;4.79;77.70
46303;BME280;32029;51.358;5.628;2023-04-27T03:20:30;101791.19;;;4.96;77.73
46303;BME280;32029;51.358;5.628;2023-04-27T03:22:57;101766.97;;;4.82;77.60
46303;BME280;32029;51.358;5.628;2023-04-27T03:25:23;101788.09;;;4.89;77.99
46303;BME280;32029;51.358;5.628;2023-04-27T03:27:50;101786.13;;;4.91;77.62
46303;BME280;32029;51.358;5.628;2023-04-27T03:30:16;101783.28;;;4.82;77.79
46303;BME280;32029;51.358;5.628;2023-04-27T03:32:43;101778.00;;;4.80;77.98
46303;BME280;32029;51.358;5.628;2023-04-27T03:35:09;101790.97;;;4.88;77.92
46303;BME280;32029;51.358;5.628;2023-04-27T03:37:35;101791.31;;;4.83;78.06
46303;BME280;32029;51.358;5.628;2023-04-27T03:40:02;101759.47;;;4.63;78.03
46303;BME280;32029;51.358;5.628;2023-04-27T03:42:32;101785.03;;;4.72;78.04
46303;BME280;32029;51.358;5.628;2023-04-27T03:44:58;101805.19;;;4.80;78.10
46303;BME280;32029;51.358;5.628;2023-04-27T03:47:24;101780.59;;;4.59;78.13
46303;BME280;32029;51.358;5.628;2023-04-27T03:49:51;101794.44;;;4.67;78.38
46303;BME280;32029;51.358;5.628;2023-04-27T03:52:18;101793.47;;;4.69;78.42
46303;BME280;32029;51.358;5.628;2023-04-27T03:54:44;101774.81;;;4.53;78.63
46303;BME280;32029;51.358;5.628;2023-04-27T03:57:11;101800.00;;;4.66;78.32
46303;BME280;32029;51.358;5.628;2023-04-27T03:59:37;101810.50;;;4.71;78.21
46303;BME280;32029;51.358;5.628;2023-04-27T04:02:03;101794.81;;;4.63;78.48
46303;BME280;32029;51.358;5.628;2023-04-27T04:04:31;101813.47;;;4.67;78.48
46303;BME280;32029;51.358;5.628;2023-04-27T04:06:57;101810.13;;;4.64;78.35
46303;BME280;32029;51.358;5.628;2023-04-27T04:09:24;101758.53;;;4.30;78.61
46303;BME280;32029;51.358;5.628;2023-04-27T04:11:51;101792.00;;;4.53;78.44
46303;BME280;32029;51.358;5.628;2023-04-27T04:14:18;101795.09;;;4.49;78.69
46303;BME280;32029;51.358;5.628;2023-04-27T04:16:44;101811.25;;;4.61;78.69
46303;BME280;32029;51.358;5.628;2023-04-27T04:19:12;101778.03;;;4.47;78.85
46303;BME280;32029;51.358;5.628;2023-04-27T04:21:38;101814.84;;;4.62;79.14
46303;BME280;32029;51.358;5.628;2023-04-27T04:24:05;101773.81;;;4.42;79.24
46303;BME280;32029;51.358;5.628;2023-04-27T04:26:32;101806.31;;;4.55;78.98
46303;BME280;32029;51.358;5.628;2023-04-27T04:28:58;101782.34;;;4.38;79.16
46303;BME280;32029;51.358;5.628;2023-04-27T04:31:25;101814.97;;;4.60;79.62
46303;BME280;32029;51.358;5.628;2023-04-27T04:33:52;101823.00;;;4.62;79.61
46303;BME280;32029;51.358;5.628;2023-04-27T04:36:19;101792.47;;;4.47;79.59
46303;BME280;32029;51.358;5.628;2023-04-27T04:38:45;101791.84;;;4.43;80.03
46303;BME280;32029;51.358;5.628;2023-04-27T04:41:11;101803.97;;;4.51;79.91
46303;BME280;32029;51.358;5.628;2023-04-27T04:43:38;101812.59;;;4.56;80.06
46303;BME280;32029;51.358;5.628;2023-04-27T04:46:05;101813.84;;;4.52;80.60
46303;BME280;32029;51.358;5.628;2023-04-27T04:48:31;101843.38;;;4.67;80.64
46303;BME280;32029;51.358;5.628;2023-04-27T04:50:57;101844.97;;;4.70;81.01
46303;BME280;32029;51.358;5.628;2023-04-27T04:53:24;101844.84;;;4.72;81.00
46303;BME280;32029;51.358;5.628;2023-04-27T04:55:51;101739.97;;;4.13;81.06
46303;BME280;32029;51.358;5.628;2023-04-27T04:58:18;101842.63;;;4.77;81.35
46303;BME280;32029;51.358;5.628;2023-04-27T05:00:44;101824.47;;;4.66;81.40
46303;BME280;32029;51.358;5.628;2023-04-27T05:03:11;101798.66;;;4.60;81.66
46303;BME280;32029;51.358;5.628;2023-04-27T05:05:38;101805.44;;;4.66;81.59
46303;BME280;32029;51.358;5.628;2023-04-27T05:08:04;101843.50;;;4.88;81.56
46303;BME280;32029;51.358;5.628;2023-04-27T05:10:31;101845.97;;;4.91;82.16
46303;BME280;32029;51.358;5.628;2023-04-27T05:12:57;101823.72;;;4.75;82.43
46303;BME280;32029;51.358;5.628;2023-04-27T05:15:24;101831.00;;;4.86;82.30
46303;BME280;32029;51.358;5.628;2023-04-27T05:17:50;101850.41;;;5.04;82.20
46303;BME280;32029;51.358;5.628;2023-04-27T05:20:19;101850.88;;;5.09;83.08
46303;BME280;32029;51.358;5.628;2023-04-27T05:22:45;101859.50;;;5.14;82.98
46303;BME280;32029;51.358;5.628;2023-04-27T05:25:12;101830.84;;;4.99;83.13
46303;BME280;32029;51.358;5.628;2023-04-27T05:27:38;101857.75;;;5.24;83.54
46303;BME280;32029;51.358;5.628;2023-04-27T05:30:07;101860.25;;;5.27;83.57
46303;BME280;32029;51.358;5.628;2023-04-27T05:32:33;101839.09;;;5.20;83.52
46303;BME280;32029;51.358;5.628;2023-04-27T05:35:02;101855.72;;;5.37;83.89
46303;BME280;32029;51.358;5.628;2023-04-27T05:37:29;101857.22;;;5.41;83.68
46303;BME280;32029;51.358;5.628;2023-04-27T05:39:56;101842.13;;;5.37;83.62
46303;BME280;32029;51.358;5.628;2023-04-27T05:42:23;101844.44;;;5.42;83.75
46303;BME280;32029;51.358;5.628;2023-04-27T05:44:50;101862.38;;;5.56;84.03
46303;BME280;32029;51.358;5.628;2023-04-27T05:47:16;101848.00;;;5.54;84.17
46303;BME280;32029;51.358;5.628;2023-04-27T05:49:43;101822.44;;;5.45;84.77
46303;BME280;32029;51.358;5.628;2023-04-27T05:52:10;101842.91;;;5.60;84.87
46303;BME280;32029;51.358;5.628;2023-04-27T05:54:36;101853.16;;;5.68;85.83
46303;BME280;32029;51.358;5.628;2023-04-27T05:57:03;101843.31;;;5.77;85.82
46303;BME280;32029;51.358;5.628;2023-04-27T05:59:30;101868.88;;;5.97;85.44
46303;BME280;32029;51.358;5.628;2023-04-27T06:01:56;101863.06;;;6.01;85.74
46303;BME280;32029;51.358;5.628;2023-04-27T06:04:23;101871.03;;;6.14;85.66
46303;BME280;32029;51.358;5.628;2023-04-27T06:06:50;101866.63;;;6.23;86.15
46303;BME280;32029;51.358;5.628;2023-04-27T06:09:17;101870.41;;;6.31;85.40
46303;BME280;32029;51.358;5.628;2023-04-27T06:11:44;101829.88;;;6.17;85.67
46303;BME280;32029;51.358;5.628;2023-04-27T06:14:12;101866.94;;;6.50;85.48
46303;BME280;32029;51.358;5.628;2023-04-27T06:16:39;101836.16;;;6.38;85.41
46303;BME280;32029;51.358;5.628;2023-04-27T06:19:05;101835.81;;;6.53;85.01
46303;BME280;32029;51.358;5.628;2023-04-27T06:21:33;101791.53;;;6.39;84.70
46303;BME280;32029;51.358;5.628;2023-04-27T06:24:00;101835.31;;;6.78;84.27
46303;BME280;32029;51.358;5.628;2023-04-27T06:26:27;101810.34;;;6.73;83.46
46303;BME280;32029;51.358;5.628;2023-04-27T06:28:53;101844.03;;;7.03;82.15
46303;BME280;32029;51.358;5.628;2023-04-27T06:31:21;101848.69;;;7.22;81.42
46303;BME280;32029;51.358;5.628;2023-04-27T06:33:48;101843.50;;;7.28;80.57
46303;BME280;32029;51.358;5.628;2023-04-27T06:36:14;101827.59;;;7.33;79.41
46303;BME280;32029;51.358;5.628;2023-04-27T06:38:41;101849.44;;;7.53;78.77
46303;BME280;32029;51.358;5.628;2023-04-27T06:41:08;101854.75;;;7.64;78.37
46303;BME280;32029;51.358;5.628;2023-04-27T06:43:35;101837.38;;;7.65;77.93
46303;BME280;32029;51.358;5.628;2023-04-27T06:46:01;101809.59;;;7.60;77.16
46303;BME280;32029;51.358;5.628;2023-04-27T06:48:28;101857.91;;;7.98;76.75
46303;BME280;32029;51.358;5.628;2023-04-27T06:50:55;101831.88;;;7.94;76.57
46303;BME280;32029;51.358;5.628;2023-04-27T06:53:21;101836.03;;;8.08;76.21
46303;BME280;32029;51.358;5.628;2023-04-27T06:55:48;101837.16;;;8.15;76.01
46303;BME280;32029;51.358;5.628;2023-04-27T06:58:16;101850.41;;;8.39;75.46
46303;BME280;32029;51.358;5.628;2023-04-27T07:00:43;101845.91;;;8.48;75.37
46303;BME280;32029;51.358;5.628;2023-04-27T07:03:09;101863.13;;;8.58;74.80
46303;BME280;32029;51.358;5.628;2023-04-27T07:05:36;101824.16;;;8.46;74.52
46303;BME280;32029;51.358;5.628;2023-04-27T07:08:03;101863.06;;;8.77;73.34
46303;BME280;32029;51.358;5.628;2023-04-27T07:10:29;101845.94;;;8.75;73.22
46303;BME280;32029;51.358;5.628;2023-04-27T07:12:56;101853.66;;;8.90;72.97
46303;BME280;32029;51.358;5.628;2023-04-27T07:15:23;101853.84;;;9.06;72.45
46303;BME280;32029;51.358;5.628;2023-04-27T07:17:52;101844.88;;;9.14;72.23
46303;BME280;32029;51.358;5.628;2023-04-27T07:20:23;101821.56;;;9.10;72.44
46303;BME280;32029;51.358;5.628;2023-04-27T07:22:50;101832.22;;;9.30;72.45
46303;BME280;32029;51.358;5.628;2023-04-27T07:25:16;101848.13;;;9.45;71.13
46303;BME280;32029;51.358;5.628;2023-04-27T07:27:43;101823.41;;;9.37;70.44
46303;BME280;32029;51.358;5.628;2023-04-27T07:30:10;101798.97;;;9.25;70.26
46303;BME280;32029;51.358;5.628;2023-04-27T07:32:40;101861.78;;;9.72;70.99
46303;BME280;32029;51.358;5.628;2023-04-27T07:35:07;101838.81;;;9.73;70.60
46303;BME280;32029;51.358;5.628;2023-04-27T07:37:35;101826.22;;;9.80;69.43
46303;BME280;32029;51.358;5.628;2023-04-27T07:40:06;101819.06;;;9.88;69.61
46303;BME280;32029;51.358;5.628;2023-04-27T07:42:41;101828.78;;;10.00;68.52
46303;BME280;32029;51.358;5.628;2023-04-27T07:45:09;101848.16;;;10.24;67.82
46303;BME280;32029;51.358;5.628;2023-04-27T07:47:35;101840.31;;;10.29;67.49
46303;BME280;32029;51.358;5.628;2023-04-27T07:50:02;101835.59;;;10.40;66.60
46303;BME280;32029;51.358;5.628;2023-04-27T07:52:30;101802.84;;;10.38;65.71
46303;BME280;32029;51.358;5.628;2023-04-27T07:54:56;101839.19;;;10.66;65.92
46303;BME280;32029;51.358;5.628;2023-04-27T07:57:23;101833.03;;;10.72;65.17
46303;BME280;32029;51.358;5.628;2023-04-27T07:59:50;101834.97;;;10.88;64.74
46303;BME280;32029;51.358;5.628;2023-04-27T08:02:16;101829.19;;;10.99;64.32
46303;BME280;32029;51.358;5.628;2023-04-27T08:04:43;101801.56;;;10.93;64.36
46303;BME280;32029;51.358;5.628;2023-04-27T08:07:10;101827.38;;;11.16;63.65
46303;BME280;32029;51.358;5.628;2023-04-27T08:09:37;101820.22;;;11.23;63.78
46303;BME280;32029;51.358;5.628;2023-04-27T08:12:03;101810.06;;;11.24;63.17
46303;BME280;32029;51.358;5.628;2023-04-27T08:14:33;101811.28;;;11.38;62.82
46303;BME280;32029;51.358;5.628;2023-04-27T08:16:59;101827.13;;;11.60;62.39
46303;BME280;32029;51.358;5.628;2023-04-27T08:19:26;101805.28;;;11.50;62.63
46303;BME280;32029;51.358;5.628;2023-04-27T08:21:53;101811.31;;;11.62;62.64
46303;BME280;32029;51.358;5.628;2023-04-27T08:24:19;101800.34;;;11.70;62.14
46303;BME280;32029;51.358;5.628;2023-04-27T08:26:46;101813.09;;;11.88;62.23
46303;BME280;32029;51.358;5.628;2023-04-27T08:29:13;101828.38;;;12.15;62.22
46303;BME280;32029;51.358;5.628;2023-04-27T08:31:40;101840.75;;;12.27;61.41
46303;BME280;32029;51.358;5.628;2023-04-27T08:34:06;101823.88;;;12.38;60.63
46303;BME280;32029;51.358;5.628;2023-04-27T08:36:33;101795.66;;;12.36;60.06
46303;BME280;32029;51.358;5.628;2023-04-27T08:39:00;101811.28;;;12.60;59.48
46303;BME280;32029;51.358;5.628;2023-04-27T08:41:26;101768.63;;;12.48;58.81
46303;BME280;32029;51.358;5.628;2023-04-27T08:43:53;101801.56;;;12.81;58.28
46303;BME280;32029;51.358;5.628;2023-04-27T08:46:22;101774.16;;;12.79;57.21
46303;BME280;32029;51.358;5.628;2023-04-27T08:48:49;101749.97;;;12.66;56.82
46303;BME280;32029;51.358;5.628;2023-04-27T08:51:17;101803.53;;;13.03;56.81
46303;BME280;32029;51.358;5.628;2023-04-27T08:53:49;101776.31;;;13.00;56.43
46303;BME280;32029;51.358;5.628;2023-04-27T08:56:19;101779.69;;;13.10;54.45
46303;BME280;32029;51.358;5.628;2023-04-27T08:58:48;101788.81;;;13.19;53.84
46303;BME280;32029;51.358;5.628;2023-04-27T09:01:15;101804.72;;;13.40;54.17
46303;BME280;32029;51.358;5.628;2023-04-27T09:03:43;101810.88;;;13.50;54.24
46303;BME280;32029;51.358;5.628;2023-04-27T09:06:12;101771.28;;;13.43;53.26
46303;BME280;32029;51.358;5.628;2023-04-27T09:11:09;101795.09;;;13.82;53.40
46303;BME280;32029;51.358;5.628;2023-04-27T09:13:40;101789.31;;;13.91;51.82
46303;BME280;32029;51.358;5.628;2023-04-27T09:16:07;101780.66;;;13.94;51.24
46303;BME280;32029;51.358;5.628;2023-04-27T09:18:35;101794.16;;;14.12;50.59
46303;BME280;32029;51.358;5.628;2023-04-27T09:21:03;101775.69;;;14.13;50.51
46303;BME280;32029;51.358;5.628;2023-04-27T09:23:38;101784.63;;;14.30;49.98
46303;BME280;32029;51.358;5.628;2023-04-27T09:26:07;101779.41;;;14.35;50.28
46303;BME280;32029;51.358;5.628;2023-04-27T09:28:37;101783.41;;;14.47;49.60
46303;BME280;32029;51.358;5.628;2023-04-27T09:31:04;101787.53;;;14.66;48.31
46303;BME280;32029;51.358;5.628;2023-04-27T09:33:32;101795.16;;;14.79;47.30
46303;BME280;32029;51.358;5.628;2023-04-27T09:36:01;101760.22;;;14.71;46.87
46303;BME280;32029;51.358;5.628;2023-04-27T09:38:29;101764.19;;;14.83;46.92
46303;BME280;32029;51.358;5.628;2023-04-27T09:40:56;101775.50;;;15.03;46.02
46303;BME280;32029;51.358;5.628;2023-04-27T09:43:23;101751.13;;;14.92;46.11
46303;BME280;32029;51.358;5.628;2023-04-27T09:45:50;101772.25;;;15.14;46.59
46303;BME280;32029;51.358;5.628;2023-04-27T09:48:17;101753.91;;;15.13;46.47
46303;BME280;32029;51.358;5.628;2023-04-27T09:50:44;101745.53;;;15.22;46.09
46303;BME280;32029;51.358;5.628;2023-04-27T09:53:14;101763.97;;;15.36;45.82
46303;BME280;32029;51.358;5.628;2023-04-27T09:58:28;101768.44;;;15.58;45.00
46303;BME280;32029;51.358;5.628;2023-04-27T10:01:09;101764.22;;;15.62;44.97
46303;BME280;32029;51.358;5.628;2023-04-27T10:06:50;101758.66;;;15.77;44.66
46303;BME280;32029;51.358;5.628;2023-04-27T10:09:20;101737.13;;;15.73;43.83
46303;BME280;32029;51.358;5.628;2023-04-27T10:11:52;101753.06;;;15.92;44.94
46303;BME280;32029;51.358;5.628;2023-04-27T10:14:21;101740.69;;;15.95;43.91
46303;BME280;32029;51.358;5.628;2023-04-27T10:19:21;101738.34;;;16.20;43.58
46303;BME280;32029;51.358;5.628;2023-04-27T10:21:56;101756.59;;;16.42;44.19
46303;BME280;32029;51.358;5.628;2023-04-27T10:24:36;101730.84;;;16.48;44.06
46303;BME280;32029;51.358;5.628;2023-04-27T10:27:05;101755.97;;;16.75;43.20
46303;BME280;32029;51.358;5.628;2023-04-27T10:29:43;101686.50;;;16.41;40.20
46303;BME280;32029;51.358;5.628;2023-04-27T10:32:17;101763.69;;;16.86;40.64
46303;BME280;32029;51.358;5.628;2023-04-27T10:34:44;101759.91;;;16.94;40.10
46303;BME280;32029;51.358;5.628;2023-04-27T10:37:13;101737.66;;;16.80;40.02
46303;BME280;32029;51.358;5.628;2023-04-27T10:39:42;101759.28;;;16.98;39.85
46303;BME280;32029;51.358;5.628;2023-04-27T10:42:09;101757.78;;;17.02;39.80
46303;BME280;32029;51.358;5.628;2023-04-27T10:44:37;101740.72;;;16.99;39.58
46303;BME280;32029;51.358;5.628;2023-04-27T10:47:17;101754.00;;;17.17;37.71
46303;BME280;32029;51.358;5.628;2023-04-27T10:49:47;101708.06;;;16.94;38.13
46303;BME280;32029;51.358;5.628;2023-04-27T10:52:17;101750.78;;;17.20;38.33
46303;BME280;32029;51.358;5.628;2023-04-27T10:54:44;101744.22;;;17.21;38.95
46303;BME280;32029;51.358;5.628;2023-04-27T10:57:12;101732.44;;;17.19;38.33
46303;BME280;32029;51.358;5.628;2023-04-27T10:59:51;101738.66;;;17.27;38.95
46303;BME280;32029;51.358;5.628;2023-04-27T11:02:26;101739.09;;;17.31;38.40
46303;BME280;32029;51.358;5.628;2023-04-27T11:04:54;101727.78;;;17.26;38.38
46303;BME280;32029;51.358;5.628;2023-04-27T11:07:25;101719.47;;;17.26;38.63
46303;BME280;32029;51.358;5.628;2023-04-27T11:09:53;101713.94;;;17.32;38.88
46303;BME280;32029;51.358;5.628;2023-04-27T11:12:20;101722.00;;;17.27;39.67
46303;BME280;32029;51.358;5.628;2023-04-27T11:14:46;101703.03;;;17.31;39.04
46303;BME280;32029;51.358;5.628;2023-04-27T11:17:13;101685.09;;;17.20;39.61
46303;BME280;32029;51.358;5.628;2023-04-27T11:19:46;101684.25;;;17.20;38.90
46303;BME280;32029;51.358;5.628;2023-04-27T11:22:14;101692.16;;;17.29;38.81
46303;BME280;32029;51.358;5.628;2023-04-27T11:24:48;101704.97;;;17.37;39.38
46303;BME280;32029;51.358;5.628;2023-04-27T11:27:15;101685.53;;;17.30;39.56
46303;BME280;32029;51.358;5.628;2023-04-27T11:29:43;101696.00;;;17.35;40.37
46303;BME280;32029;51.358;5.628;2023-04-27T11:32:20;101696.66;;;17.37;39.81
46303;BME280;32029;51.358;5.628;2023-04-27T11:34:51;101695.38;;;17.33;39.86
46303;BME280;32029;51.358;5.628;2023-04-27T11:37:22;101701.34;;;17.30;39.55
46303;BME280;32029;51.358;5.628;2023-04-27T11:39:50;101701.97;;;17.25;38.39
46303;BME280;32029;51.358;5.628;2023-04-27T11:42:24;101694.03;;;17.15;38.53
46303;BME280;32029;51.358;5.628;2023-04-27T11:45:00;101685.91;;;16.94;38.33
46303;BME280;32029;51.358;5.628;2023-04-27T11:47:28;101692.69;;;16.92;39.80
46303;BME280;32029;51.358;5.628;2023-04-27T11:49:57;101672.59;;;16.76;39.27
46303;BME280;32029;51.358;5.628;2023-04-27T11:52:47;101692.94;;;16.90;38.25
46303;BME280;32029;51.358;5.628;2023-04-27T11:55:14;101683.72;;;16.83;38.15
46303;BME280;32029;51.358;5.628;2023-04-27T11:57:43;101660.41;;;16.71;39.30
46303;BME280;32029;51.358;5.628;2023-04-27T12:00:10;101687.56;;;16.88;38.89
46303;BME280;32029;51.358;5.628;2023-04-27T12:02:40;101688.00;;;16.92;39.35
46303;BME280;32029;51.358;5.628;2023-04-27T12:05:07;101672.44;;;16.91;38.23
46303;BME280;32029;51.358;5.628;2023-04-27T12:07:34;101670.09;;;16.88;39.13
46303;BME280;32029;51.358;5.628;2023-04-27T12:10:01;101642.78;;;16.78;40.27
46303;BME280;32029;51.358;5.628;2023-04-27T12:12:28;101673.13;;;17.06;38.55
46303;BME280;32029;51.358;5.628;2023-04-27T12:14:55;101682.94;;;17.15;37.99
46303;BME280;32029;51.358;5.628;2023-04-27T12:17:21;101652.41;;;16.96;38.35
46303;BME280;32029;51.358;5.628;2023-04-27T12:19:48;101641.97;;;17.04;38.05
46303;BME280;32029;51.358;5.628;2023-04-27T12:22:15;101668.47;;;17.27;37.84
46303;BME280;32029;51.358;5.628;2023-04-27T12:24:41;101667.22;;;17.36;38.23
46303;BME280;32029;51.358;5.628;2023-04-27T12:27:08;101676.81;;;17.40;38.39
46303;BME280;32029;51.358;5.628;2023-04-27T12:29:35;101673.19;;;17.46;36.92
46303;BME280;32029;51.358;5.628;2023-04-27T12:32:03;101639.25;;;17.31;36.31
46303;BME280;32029;51.358;5.628;2023-04-27T12:34:29;101662.28;;;17.51;37.08
46303;BME280;32029;51.358;5.628;2023-04-27T12:36:56;101655.28;;;17.55;36.28
46303;BME280;32029;51.358;5.628;2023-04-27T12:39:23;101650.78;;;17.54;36.76
46303;BME280;32029;51.358;5.628;2023-04-27T12:41:52;101650.56;;;17.49;36.08
46303;BME280;32029;51.358;5.628;2023-04-27T12:44:19;101649.72;;;17.42;36.00
46303;BME280;32029;51.358;5.628;2023-04-27T12:46:46;101628.34;;;17.23;36.50
46303;BME280;32029;51.358;5.628;2023-04-27T12:49:13;101653.56;;;17.41;37.73
46303;BME280;32029;51.358;5.628;2023-04-27T12:51:40;101637.31;;;17.31;36.90
46303;BME280;32029;51.358;5.628;2023-04-27T12:54:08;101636.47;;;17.31;35.57
46303;BME280;32029;51.358;5.628;2023-04-27T12:56:36;101640.31;;;17.30;36.83
46303;BME280;32029;51.358;5.628;2023-04-27T12:59:02;101619.41;;;17.21;36.58
46303;BME280;32029;51.358;5.628;2023-04-27T13:01:30;101633.28;;;17.34;37.16
46303;BME280;32029;51.358;5.628;2023-04-27T13:04:01;101654.63;;;17.53;35.61
46303;BME280;32029;51.358;5.628;2023-04-27T13:06:29;101652.72;;;17.60;36.54
46303;BME280;32029;51.358;5.628;2023-04-27T13:08:58;101650.78;;;17.68;35.78